createdAt,value
2018-04-08T00:00:28.608Z,87.20
2018-04-08T00:03:03.281Z,87.20
2018-04-08T00:05:31.515Z,87.40
2018-04-08T00:07:58.988Z,87.30
2018-04-08T00:10:26.461Z,87.40
2018-04-08T00:12:53.948Z,87.80
2018-04-08T00:15:21.423Z,87.60
2018-04-08T00:17:48.894Z,87.60
2018-04-08T00:20:16.359Z,87.50
2018-04-08T00:22:43.840Z,87.30
2018-04-08T00:25:11.307Z,87.60
2018-04-08T00:27:39.529Z,88.20
2018-04-08T00:30:07.011Z,88.00
2018-04-08T00:32:34.483Z,87.90
2018-04-08T00:35:01.970Z,88.00
2018-04-08T00:37:29.947Z,88.10
2018-04-08T00:39:57.421Z,87.90
2018-04-08T00:42:24.881Z,88.20
2018-04-08T00:44:52.352Z,88.00
2018-04-08T00:47:19.837Z,88.00
2018-04-08T00:49:47.319Z,88.10
2018-04-08T00:52:14.790Z,87.80
2018-04-08T00:54:43.022Z,88.10
2018-04-08T00:57:10.496Z,88.00
2018-04-08T00:59:38.735Z,88.10
2018-04-08T01:02:06.216Z,88.00
2018-04-08T01:04:33.688Z,88.30
2018-04-08T01:07:01.944Z,88.80
2018-04-08T01:09:30.176Z,88.40
2018-04-08T01:11:57.637Z,88.40
2018-04-08T01:14:25.124Z,88.50
2018-04-08T01:16:52.591Z,88.40
2018-04-08T01:19:20.853Z,88.40
2018-04-08T01:21:48.324Z,88.30
2018-04-08T01:24:16.544Z,88.80
2018-04-08T01:26:44.030Z,88.70
2018-04-08T01:29:11.485Z,89.00
2018-04-08T01:31:38.941Z,89.10
2018-04-08T01:34:06.411Z,89.10
2018-04-08T01:36:33.912Z,89.00
2018-04-08T01:39:01.376Z,89.40
2018-04-08T01:41:28.837Z,89.10
2018-04-08T01:43:56.319Z,88.70
2018-04-08T01:46:23.778Z,88.60
2018-04-08T01:48:51.240Z,88.50
2018-04-08T01:51:18.712Z,88.60
2018-04-08T01:53:46.951Z,89.10
2018-04-08T01:56:14.425Z,89.10
2018-04-08T01:58:41.892Z,89.10
2018-04-08T02:01:09.340Z,88.90
2018-04-08T02:03:36.878Z,89.00
2018-04-08T02:06:04.340Z,89.40
2018-04-08T02:08:31.818Z,89.40
2018-04-08T02:10:59.301Z,89.50
2018-04-08T02:13:26.749Z,89.30
2018-04-08T02:15:54.975Z,89.50
2018-04-08T02:18:22.449Z,89.50
2018-04-08T02:20:49.932Z,89.30
2018-04-08T02:23:18.166Z,89.30
2018-04-08T02:25:45.625Z,89.20
2018-04-08T02:28:13.092Z,89.20
2018-04-08T02:30:40.572Z,89.00
2018-04-08T02:33:08.790Z,89.20
2018-04-08T02:35:36.291Z,89.10
2018-04-08T02:38:04.540Z,89.30
2018-04-08T02:40:31.989Z,89.20
2018-04-08T02:42:59.453Z,89.20
2018-04-08T02:45:26.922Z,89.30
2018-04-08T02:47:54.432Z,89.60
2018-04-08T02:50:21.896Z,89.70
2018-04-08T02:52:49.368Z,90.20
2018-04-08T02:55:16.844Z,90.00
2018-04-08T02:57:44.321Z,90.10
2018-04-08T03:00:12.536Z,90.00
2018-04-08T03:02:40.805Z,90.10
2018-04-08T03:05:08.277Z,90.10
2018-04-08T03:07:35.757Z,90.30
2018-04-08T03:10:03.224Z,90.20
2018-04-08T03:12:30.694Z,90.30
2018-04-08T03:14:58.951Z,90.30
2018-04-08T03:17:26.433Z,90.30
2018-04-08T03:19:54.676Z,90.70
2018-04-08T03:22:22.139Z,90.70
2018-04-08T03:24:49.607Z,90.60
2018-04-08T03:27:17.087Z,90.50
2018-04-08T03:29:45.553Z,90.90
2018-04-08T03:32:14.208Z,90.60
2018-04-08T03:34:41.668Z,90.60
2018-04-08T03:37:09.128Z,90.60
2018-04-08T03:39:36.576Z,90.40
2018-04-08T03:42:04.071Z,90.80
2018-04-08T03:44:32.305Z,90.40
2018-04-08T03:46:59.760Z,90.60
2018-04-08T03:49:27.226Z,90.70
2018-04-08T03:51:54.684Z,90.60
2018-04-08T03:54:22.152Z,90.50
2018-04-08T03:56:50.409Z,90.60
2018-04-08T03:59:17.860Z,90.60
2018-04-08T04:01:45.300Z,90.60
2018-04-08T04:04:12.764Z,90.30
2018-04-08T04:06:40.220Z,90.40
2018-04-08T04:09:07.690Z,90.20
2018-04-08T04:11:35.149Z,90.00
2018-04-08T04:14:02.636Z,90.00
2018-04-08T04:16:30.883Z,90.10
2018-04-08T04:19:10.192Z,90.10
2018-04-08T04:21:49.736Z,90.10
2018-04-08T04:27:19.676Z,90.30
2018-04-08T04:29:47.152Z,90.00
2018-04-08T04:32:14.628Z,90.20
2018-04-08T04:34:42.872Z,90.30
2018-04-08T04:37:10.351Z,90.20
2018-04-08T04:39:38.607Z,90.20
2018-04-08T04:42:06.132Z,90.20
2018-04-08T04:44:33.595Z,90.10
2018-04-08T04:47:01.041Z,90.20
2018-04-08T04:49:28.531Z,90.10
2018-04-08T04:51:56.015Z,90.10
2018-04-08T04:54:24.317Z,90.00
2018-04-08T04:56:51.807Z,90.00
2018-04-08T04:59:19.284Z,90.10
2018-04-08T05:01:46.744Z,89.80
2018-04-08T05:04:14.224Z,89.40
2018-04-08T05:06:41.707Z,89.50
2018-04-08T05:09:09.189Z,90.00
2018-04-08T05:11:36.632Z,89.60
2018-04-08T05:14:04.116Z,90.20
2018-04-08T05:16:31.592Z,90.20
2018-04-08T05:18:59.837Z,90.20
2018-04-08T05:21:27.284Z,90.20
2018-04-08T05:23:54.740Z,90.00
2018-04-08T05:26:22.188Z,90.00
2018-04-08T05:28:49.648Z,90.10
2018-04-08T05:31:17.130Z,90.00
2018-04-08T05:33:44.657Z,89.60
2018-04-08T05:36:12.121Z,89.30
2018-04-08T05:38:39.571Z,88.90
2018-04-08T05:41:07.049Z,88.90
2018-04-08T05:43:34.524Z,88.50
2018-04-08T05:46:02.745Z,88.40
2018-04-08T05:48:30.192Z,88.30
2018-04-08T05:50:57.664Z,88.00
2018-04-08T05:53:25.124Z,88.20
2018-04-08T05:55:52.591Z,87.90
2018-04-08T05:58:20.092Z,87.20
2018-04-08T06:00:48.315Z,87.50
2018-04-08T06:03:15.795Z,87.50
2018-04-08T06:05:43.272Z,87.30
2018-04-08T06:08:11.524Z,87.30
2018-04-08T06:10:38.992Z,87.20
2018-04-08T06:13:06.496Z,87.60
2018-04-08T06:15:34.128Z,88.40
2018-04-08T06:18:02.365Z,88.40
2018-04-08T06:20:30.061Z,88.30
2018-04-08T06:22:58.302Z,84.80
2018-04-08T06:25:25.777Z,84.80
2018-04-08T06:27:54.027Z,83.70
2018-04-08T06:30:21.497Z,83.70
2018-04-08T06:32:49.977Z,83.60
2018-04-08T06:35:17.512Z,83.80
2018-04-08T06:37:45.017Z,81.30
2018-04-08T06:40:13.271Z,80.10
2018-04-08T06:42:40.760Z,80.00
2018-04-08T06:45:08.237Z,80.40
2018-04-08T06:47:35.726Z,80.70
2018-04-08T06:50:03.224Z,81.60
2018-04-08T06:52:31.475Z,81.30
2018-04-08T06:54:58.943Z,81.10
2018-04-08T06:57:27.181Z,79.20
2018-04-08T06:59:54.637Z,79.10
2018-04-08T07:02:22.128Z,78.80
2018-04-08T07:04:50.391Z,78.10
2018-04-08T07:07:18.070Z,78.00
2018-04-08T07:09:46.841Z,76.80
2018-04-08T07:12:14.315Z,76.50
2018-04-08T07:14:42.564Z,72.70
2018-04-08T07:17:10.062Z,72.70
2018-04-08T07:19:37.532Z,72.20
2018-04-08T07:22:05.061Z,73.00
2018-04-08T07:24:33.370Z,73.20
2018-04-08T07:27:01.584Z,74.10
2018-04-08T07:29:32.349Z,73.40
2018-04-08T07:31:59.839Z,74.00
2018-04-08T07:34:27.305Z,73.00
2018-04-08T07:36:54.785Z,73.00
2018-04-08T07:39:22.243Z,72.90
2018-04-08T07:41:51.033Z,72.80
2018-04-08T07:44:18.528Z,72.80
2018-04-08T07:46:46.024Z,72.60
2018-04-08T07:49:13.478Z,72.90
2018-04-08T07:51:40.967Z,72.10
2018-04-08T07:54:08.512Z,72.10
2018-04-08T07:56:35.956Z,71.50
2018-04-08T07:59:03.424Z,71.50
2018-04-08T08:01:30.989Z,65.20
2018-04-08T08:03:58.518Z,63.40
2018-04-08T08:06:25.996Z,61.70
2018-04-08T08:08:53.444Z,58.30
2018-04-08T08:11:20.935Z,57.70
2018-04-08T08:13:49.176Z,57.40
2018-04-08T08:16:16.701Z,57.30
2018-04-08T08:18:44.183Z,59.70
2018-04-08T08:21:11.667Z,56.70
2018-04-08T08:23:39.930Z,53.70
2018-04-08T08:26:07.377Z,53.60
2018-04-08T08:28:34.878Z,53.20
2018-04-08T08:31:02.328Z,52.60
2018-04-08T08:33:29.824Z,52.00
2018-04-08T08:35:57.280Z,50.40
2018-04-08T08:38:24.772Z,52.40
2018-04-08T08:40:52.255Z,55.50
2018-04-08T08:43:20.470Z,51.70
2018-04-08T08:45:47.968Z,51.70
2018-04-08T08:48:16.187Z,49.80
2018-04-08T08:50:43.661Z,49.70
2018-04-08T08:53:11.136Z,45.50
2018-04-08T08:55:38.611Z,45.00
2018-04-08T08:58:06.868Z,42.40
2018-04-08T09:00:34.362Z,42.30
2018-04-08T09:03:01.836Z,41.80
2018-04-08T09:05:31.135Z,42.50
2018-04-08T09:08:00.074Z,40.50
2018-04-08T09:10:28.519Z,39.70
2018-04-08T09:12:57.664Z,39.60
2018-04-08T09:15:26.021Z,40.60
2018-04-08T09:17:53.959Z,40.50
2018-04-08T09:20:32.257Z,38.80
2018-04-08T09:26:12.503Z,37.00
2018-04-08T09:28:40.739Z,34.80
2018-04-08T09:31:08.216Z,34.80
2018-04-08T09:33:35.684Z,35.60
2018-04-08T09:36:03.928Z,36.10
2018-04-08T09:38:31.420Z,36.00
2018-04-08T09:40:59.664Z,36.30
2018-04-08T09:43:27.144Z,36.30
2018-04-08T09:45:55.404Z,36.40
2018-04-08T09:48:22.884Z,36.40
2018-04-08T09:50:51.184Z,36.50
2018-04-08T09:53:18.647Z,36.30
2018-04-08T09:55:46.153Z,36.00
2018-04-08T09:58:14.416Z,38.50
2018-04-08T10:00:47.641Z,35.50
2018-04-08T10:06:18.993Z,33.80
2018-04-08T10:08:46.483Z,33.80
2018-04-08T10:11:14.709Z,34.70
2018-04-08T10:13:42.187Z,34.60
2018-04-08T10:16:11.237Z,34.40
2018-04-08T10:18:38.713Z,34.40
2018-04-08T10:21:06.184Z,35.80
2018-04-08T10:23:34.420Z,35.90
2018-04-08T10:26:01.872Z,35.80
2018-04-08T10:28:30.172Z,34.80
2018-04-08T10:30:57.920Z,34.50
2018-04-08T10:33:26.195Z,34.60
2018-04-08T10:35:53.676Z,32.80
2018-04-08T10:38:21.153Z,33.10
2018-04-08T10:40:49.819Z,34.50
2018-04-08T10:43:18.084Z,34.00
2018-04-08T10:45:45.588Z,33.90
2018-04-08T10:48:13.057Z,34.50
2018-04-08T10:50:47.420Z,34.30
2018-04-08T10:53:14.881Z,33.20
2018-04-08T10:55:42.352Z,34.60
2018-04-08T10:58:10.688Z,32.70
2018-04-08T11:00:38.164Z,32.70
2018-04-08T11:03:05.655Z,32.70
2018-04-08T11:05:33.880Z,32.00
2018-04-08T11:08:01.412Z,31.70
2018-04-08T11:10:28.905Z,32.80
2018-04-08T11:13:07.800Z,32.00
2018-04-08T11:15:37.301Z,31.70
2018-04-08T11:18:04.788Z,29.10
2018-04-08T11:20:32.522Z,31.00
2018-04-08T11:23:00.023Z,30.40
2018-04-08T11:25:28.352Z,29.70
2018-04-08T11:27:55.849Z,29.70
2018-04-08T11:30:23.336Z,29.80
2018-04-08T11:32:50.848Z,31.00
2018-04-08T11:35:18.296Z,30.10
2018-04-08T11:37:46.551Z,29.50
2018-04-08T11:40:14.500Z,29.60
2018-04-08T11:42:42.731Z,31.70
2018-04-08T11:45:12.872Z,29.40
2018-04-08T11:47:41.149Z,29.00
2018-04-08T11:50:09.420Z,30.50
2018-04-08T11:52:38.688Z,28.20
2018-04-08T11:55:06.186Z,28.20
2018-04-08T11:57:36.180Z,28.50
2018-04-08T12:00:05.631Z,28.50
2018-04-08T12:02:33.929Z,29.50
2018-04-08T12:05:01.419Z,29.50
2018-04-08T12:07:30.576Z,28.50
2018-04-08T12:09:59.771Z,28.40
2018-04-08T12:12:27.452Z,29.10
2018-04-08T12:14:54.938Z,28.70
2018-04-08T12:17:24.177Z,28.40
2018-04-08T12:19:51.836Z,28.30
2018-04-08T12:22:19.339Z,28.40
2018-04-08T12:24:46.805Z,29.00
2018-04-08T12:27:15.979Z,29.80
2018-04-08T12:29:43.462Z,29.80
2018-04-08T12:32:11.731Z,30.20
2018-04-08T12:34:39.209Z,30.20
2018-04-08T12:37:06.684Z,30.90
2018-04-08T12:39:34.144Z,32.00
2018-04-08T12:42:01.620Z,29.90
2018-04-08T12:44:29.140Z,30.50
2018-04-08T12:46:56.617Z,29.10
2018-04-08T12:49:24.088Z,30.00
2018-04-08T12:51:51.604Z,33.60
2018-04-08T12:54:19.833Z,29.50
2018-04-08T12:56:47.304Z,29.50
2018-04-08T12:59:14.773Z,30.10
2018-04-08T13:01:43.032Z,32.10
2018-04-08T13:04:10.524Z,32.10
2018-04-08T13:06:38.008Z,31.30
2018-04-08T13:09:05.552Z,29.10
2018-04-08T13:11:33.042Z,29.70
2018-04-08T13:14:00.738Z,30.00
2018-04-08T13:16:29.316Z,29.30
2018-04-08T13:18:57.528Z,29.20
2018-04-08T13:21:25.025Z,29.10
2018-04-08T13:23:52.507Z,28.50
2018-04-08T13:26:20.797Z,28.40
2018-04-08T13:28:49.008Z,28.50
2018-04-08T13:31:17.317Z,28.50
2018-04-08T13:33:44.787Z,28.10
2018-04-08T13:36:13.016Z,28.70
2018-04-08T13:38:41.741Z,28.70
2018-04-08T13:41:10.050Z,30.00
2018-04-08T13:43:37.528Z,30.40
2018-04-08T13:46:05.012Z,29.10
2018-04-08T13:48:33.540Z,30.40
2018-04-08T13:51:03.249Z,27.90
2018-04-08T13:53:31.023Z,27.90
2018-04-08T13:55:58.588Z,28.70
2018-04-08T13:58:28.080Z,27.90
2018-04-08T14:00:56.832Z,28.40
2018-04-08T14:03:24.460Z,28.20
2018-04-08T14:05:51.944Z,27.90
2018-04-08T14:08:19.589Z,29.20
2018-04-08T14:10:47.110Z,28.80
2018-04-08T14:13:15.423Z,27.50
2018-04-08T14:15:42.900Z,27.50
2018-04-08T14:18:11.156Z,30.60
2018-04-08T14:20:38.631Z,30.70
2018-04-08T14:23:07.207Z,27.60
2018-04-08T14:25:34.684Z,27.70
2018-04-08T14:28:02.136Z,28.80
2018-04-08T14:30:30.390Z,26.90
2018-04-08T14:32:57.875Z,26.90
2018-04-08T14:35:25.388Z,28.00
2018-04-08T14:37:52.844Z,29.20
2018-04-08T14:40:20.315Z,28.70
2018-04-08T14:42:47.810Z,28.90
2018-04-08T14:45:15.272Z,28.90
2018-04-08T14:47:43.420Z,30.60
2018-04-08T14:50:12.313Z,29.80
2018-04-08T14:52:41.120Z,28.70
2018-04-08T14:55:09.388Z,28.70
2018-04-08T14:57:36.852Z,30.30
2018-04-08T15:00:05.134Z,31.90
2018-04-08T15:02:33.161Z,32.20
2018-04-08T15:05:01.804Z,29.40
2018-04-08T15:07:29.268Z,29.10
2018-04-08T15:09:57.286Z,29.90
2018-04-08T15:12:24.926Z,31.30
2018-04-08T15:14:53.017Z,32.10
2018-04-08T15:17:23.728Z,30.50
2018-04-08T15:19:51.542Z,30.60
2018-04-08T15:22:20.349Z,28.50
2018-04-08T15:24:49.638Z,28.50
2018-04-08T15:27:17.193Z,29.80
2018-04-08T15:29:44.970Z,32.10
2018-04-08T15:32:12.828Z,30.00
2018-04-08T15:34:41.024Z,32.00
2018-04-08T15:37:08.541Z,31.80
2018-04-08T15:39:37.277Z,28.60
2018-04-08T15:42:07.176Z,31.00
2018-04-08T15:44:34.708Z,31.30
2018-04-08T15:47:03.052Z,31.90
2018-04-08T15:49:30.519Z,29.70
2018-04-08T15:51:58.028Z,30.30
2018-04-08T15:54:26.554Z,31.40
2018-04-08T15:56:54.163Z,31.50
2018-04-08T15:59:21.659Z,31.10
2018-04-08T16:01:50.145Z,29.20
2018-04-08T16:04:17.862Z,29.10
2018-04-08T16:06:45.483Z,29.50
2018-04-08T16:09:13.085Z,30.70
2018-04-08T16:11:45.111Z,31.00
2018-04-08T16:14:14.114Z,32.30
2018-04-08T16:16:41.632Z,32.50
2018-04-08T16:19:10.372Z,33.80
2018-04-08T16:21:39.660Z,33.80
2018-04-08T16:24:08.929Z,33.30
2018-04-08T16:26:37.482Z,32.80
2018-04-08T16:29:08.389Z,35.20
2018-04-08T16:31:36.303Z,35.20
2018-04-08T16:34:04.579Z,35.30
2018-04-08T16:36:32.813Z,36.60
2018-04-08T16:39:00.264Z,36.60
2018-04-08T16:41:27.776Z,38.80
2018-04-08T16:43:55.520Z,38.60
2018-04-08T16:46:23.754Z,39.70
2018-04-08T16:48:51.252Z,39.70
2018-04-08T16:51:19.468Z,41.70
2018-04-08T16:53:46.953Z,41.70
2018-04-08T16:56:14.416Z,42.00
2018-04-08T16:58:41.889Z,42.40
2018-04-08T17:04:03.404Z,43.70
2018-04-08T17:07:20.170Z,42.50
2018-04-08T17:16:38.064Z,42.90
2018-04-08T17:30:40.367Z,52.40
2018-04-08T17:33:39.809Z,52.80
